< < Back
Terminal Aerodrome Forecast


Current Version              Previous Versions:   1  2  3  4  5  6  7  8  9  

Terminal Aerodrome Forecast

410
FTUS42 KFFC 261126
TAFCSG
TAF
KCSG 261126Z 2612/2712 31006KT P6SM SCT100
     FM261500 28010KT P6SM SCT100
     FM262000 26006KT P6SM SCT250=

Latest METAR

920
SAUS70 KWBC 261400 RRA
MTRCSG
METAR KCSG 261351Z 33006KT 10SM CLR 07/00 A3012 RMK AO2 SLP199
T00720000


USA.gov is the U.S. government's official web portal to all federal, state and local government web resources and services.